Sea Commander — VGGC — position and weather

sailwx.info

Track history (hours):
 
Tides and Currents Weather Stations Pressure Air Temp Water Temp Dewpoint Dewpoint Depression Visibility Wind Speed Wind Dir Waves Ship Positions

Sea Commander

Last reported at 2015-Jan-23 06:30 UTC. Time now 2015-Jan-26 12:34 UTC.
Position N 51°32' W 127°52'.

Length 44 m; draft 7 m.

Type: Tug. MMSI: 316001043.

Date/timePositionNaut miles runAvg speedWind from/ knotsBaromVisibWave heightAir tempDewpointWater temp
2015-Jan-23 06:30N 51°32' W 127°52'10 8.0
2015-Jan-23 05:16N 51°22' W 127°52'10 8.1
2015-Jan-23 04:05N 51°13' W 127°52'4 8.2
2015-Jan-23 03:32N 51°08' W 127°50'9 8.9
2015-Jan-23 02:33N 51°03' W 127°39'9 9.3
2015-Jan-23 01:33N 50°57' W 127°28'10 9.8
2015-Jan-23 00:33N 50°51' W 127°15'10 9.5
2015-Jan-22 23:32N 50°46' W 127°02'9 8.9
2015-Jan-22 22:32N 50°40' W 126°51'9 8.2
2015-Jan-22 21:29N 50°34' W 126°42'7 7.5
2015-Jan-22 20:32N 50°30' W 126°32'73 8.1
2015-Jan-22 11:33N 49°51' W 124°57'10 9.6
2015-Jan-22 10:33N 49°44' W 124°46'10 9.7
2015-Jan-22 09:33N 49°37' W 124°37'10 9.6
2015-Jan-22 08:33N 49°29' W 124°28'10 9.7
2015-Jan-22 07:33N 49°24' W 124°15'9 9.3
2015-Jan-22 06:33N 49°20' W 124°02'10 8.9
2015-Jan-22 05:29N 49°12' W 123°54'3 2.7
2015-Jan-22 04:31N 49°10' W 123°55'0 0.0
2015-Jan-22 03:32N 49°10' W 123°55'0 0.0
2015-Jan-22 02:24N 49°10' W 123°55'0 0.0
2015-Jan-22 01:28N 49°10' W 123°55'1 1.5
2015-Jan-22 00:33N 49°11' W 123°54'1110.8
2015-Jan-21 23:33N 49°11' W 123°38'912.0
2015-Jan-21 22:50N 49°08' W 123°25'112.4
2015-Jan-21 22:46N 49°07' W 123°24'312.4
2015-Jan-21 22:33N 49°07' W 123°20'1010.5
2015-Jan-21 21:33N 49°07' W 123°05'9 0.6
2015-Jan-21 06:07N 49°12' W 122°54'0 0.0
2015-Jan-21 05:30N 49°12' W 122°54'0 0.0
2015-Jan-21 04:13N 49°12' W 122°54'0 0.0
2015-Jan-21 03:27N 49°12' W 122°54'0 0.0
2015-Jan-21 02:26N 49°12' W 122°54'0 0.0
2015-Jan-21 01:25N 49°12' W 122°54'0 0.0
2015-Jan-21 00:26N 49°12' W 122°54'0 0.0
2015-Jan-20 23:18N 49°12' W 122°54'0 0.0
2015-Jan-20 22:27N 49°12' W 122°54'0 0.0
2015-Jan-20 21:34N 49°12' W 122°54'0 0.0
2015-Jan-20 20:25N 49°12' W 122°54'0 0.0
2015-Jan-20 17:22N 49°12' W 122°54'0 0.0
2015-Jan-20 16:24N 49°12' W 122°54'0 0.0
2015-Jan-20 15:14N 49°12' W 122°54'0 0.0
2015-Jan-20 14:34N 49°12' W 122°54'0 0.0
2015-Jan-20 13:32N 49°12' W 122°54'0 0.0
2015-Jan-20 12:17N 49°12' W 122°54'0 0.0
2015-Jan-20 11:25N 49°12' W 122°54'0 0.0
2015-Jan-20 08:21N 49°12' W 122°54'0 0.0
2015-Jan-20 07:32N 49°12' W 122°54'0 0.0
2015-Jan-20 05:30N 49°12' W 122°54'0 0.0
2015-Jan-20 04:26N 49°12' W 122°54'0 0.0
2015-Jan-20 03:22N 49°12' W 122°54'0 0.0
2015-Jan-20 02:32N 49°12' W 122°54'0 0.0
2015-Jan-20 01:18N 49°12' W 122°54'0 0.0
2015-Jan-20 00:27N 49°12' W 122°54'0 0.0
2015-Jan-19 23:33N 49°12' W 122°54'0 0.0
2015-Jan-19 22:32N 49°12' W 122°54'0 0.0
2015-Jan-19 21:26N 49°12' W 122°54'0 0.0
2015-Jan-19 20:32N 49°12' W 122°54'0 0.0
2015-Jan-19 18:19N 49°12' W 122°54'0 0.0
2015-Jan-19 17:29N 49°12' W 122°54'0 0.0
2015-Jan-19 15:18N 49°12' W 122°54'0 0.0
2015-Jan-19 14:31N 49°12' W 122°54'0 0.0
2015-Jan-19 13:30N 49°12' W 122°54'0 0.0
2015-Jan-19 12:24N 49°12' W 122°54'0 0.0
2015-Jan-19 11:08N 49°12' W 122°54'0 0.0
2015-Jan-19 10:18N 49°12' W 122°54'0 0.0
2015-Jan-19 08:18N 49°12' W 122°54'0 0.0
2015-Jan-19 06:24N 49°12' W 122°54'0 0.0
2015-Jan-19 05:11N 49°12' W 122°54'0 0.0
2015-Jan-19 04:34N 49°12' W 122°54'0 0.0
2015-Jan-19 03:33N 49°12' W 122°54'0 0.0
2015-Jan-19 02:33N 49°12' W 122°54'0 0.0
2015-Jan-19 01:15N 49°12' W 122°54'0 0.0
2015-Jan-19 00:28N 49°12' W 122°54'0 0.0
2015-Jan-18 23:25N 49°12' W 122°54'0 0.0
2015-Jan-18 22:33N 49°12' W 122°54'0 0.0
2015-Jan-18 21:18N 49°12' W 122°54'0 0.0
2015-Jan-18 20:33N 49°12' W 122°54'0 0.0
2015-Jan-18 19:31N 49°12' W 122°54'0 0.0
2015-Jan-18 18:14N 49°12' W 122°54'0 0.0
2015-Jan-18 17:26N 49°12' W 122°54'0 0.0
2015-Jan-18 16:22N 49°12' W 122°54'0 0.0
2015-Jan-18 15:28N 49°12' W 122°54'0 0.0
2015-Jan-18 14:17N 49°12' W 122°54'0 0.0
2015-Jan-18 12:31N 49°12' W 122°54'0 0.0
2015-Jan-18 11:32N 49°12' W 122°54'0 0.0
2015-Jan-18 10:24N 49°12' W 122°54'0 0.0
2015-Jan-18 09:30N 49°12' W 122°54'0 0.0
2015-Jan-18 08:26N 49°12' W 122°54'0 0.0
2015-Jan-18 01:21N 49°12' W 122°54'0 0.0
2015-Jan-17 21:19N 49°12' W 122°54'0 0.0
2015-Jan-17 20:15N 49°12' W 122°54'0 0.0
2015-Jan-17 19:31N 49°12' W 122°54'0 0.0
2015-Jan-17 17:27N 49°12' W 122°54'0 0.0
2015-Jan-17 16:29N 49°12' W 122°54'0 0.0
2015-Jan-17 15:26N 49°12' W 122°54'0 0.0
2015-Jan-17 14:32N 49°12' W 122°54'0 0.0
2015-Jan-17 13:13N 49°12' W 122°54'0 0.0
2015-Jan-17 12:17N 49°12' W 122°54'0 0.0
2015-Jan-17 11:31N 49°12' W 122°54'0 0.0
2015-Jan-17 10:22N 49°12' W 122°54'0 0.0
2015-Jan-17 09:23N 49°12' W 122°54'0 0.0
2015-Jan-17 08:25N 49°12' W 122°54'0 0.0
2015-Jan-17 07:25N 49°12' W 122°54'0 0.0
2015-Jan-17 06:30N 49°12' W 122°54'0 0.0
2015-Jan-17 05:27N 49°12' W 122°54'0 0.0
2015-Jan-17 04:19N 49°12' W 122°54'0 0.0
2015-Jan-17 03:27N 49°12' W 122°54'0 0.0
2015-Jan-17 02:29N 49°12' W 122°54'0 0.0
2015-Jan-17 01:33N 49°12' W 122°54'0 0.0
2015-Jan-17 00:31N 49°12' W 122°54'0 0.0
2015-Jan-16 23:16N 49°12' W 122°54'0 0.0
2015-Jan-16 22:26N 49°12' W 122°54'0 0.0
2015-Jan-16 21:31N 49°12' W 122°54'0 0.0
2015-Jan-16 20:32N 49°12' W 122°54'0 0.0
2015-Jan-16 19:31N 49°12' W 122°54'0 0.0
2015-Jan-16 18:33N 49°12' W 122°54'0 0.0
2015-Jan-16 17:27N 49°12' W 122°54'0 0.0
2015-Jan-16 16:28N 49°12' W 122°54'0 0.0
2015-Jan-16 15:31N 49°12' W 122°54'0 0.0
2015-Jan-16 14:31N 49°12' W 122°54'0 0.0
2015-Jan-16 13:33N 49°12' W 122°54'0 0.0
2015-Jan-16 12:29N 49°12' W 122°54'0 0.0
2015-Jan-16 11:32N 49°12' W 122°54'0 0.0
2015-Jan-16 10:33N 49°12' W 122°54'0 0.0
2015-Jan-16 09:33N 49°12' W 122°54'0 0.0
2015-Jan-16 08:33N 49°12' W 122°54'0 0.0
2015-Jan-16 07:33N 49°12' W 122°54'0 0.0
2015-Jan-16 06:29N 49°12' W 122°54'0 0.0
2015-Jan-16 05:33N 49°12' W 122°54'0 0.0
2015-Jan-16 04:27N 49°12' W 122°54'0 0.0
2015-Jan-16 03:20N 49°12' W 122°54'0 0.0
2015-Jan-16 02:20N 49°12' W 122°54'0 0.0
2015-Jan-16 01:29N 49°12' W 122°54'0 0.0
2015-Jan-16 00:31N 49°12' W 122°54'0 0.0
2015-Jan-15 23:16N 49°12' W 122°54'0 0.0
2015-Jan-15 22:32N 49°12' W 122°54'0 0.0
2015-Jan-15 09:07N 49°12' W 122°54'0 0.0
2015-Jan-15 04:06N 49°12' W 122°54'0 0.0
2015-Jan-15 03:30N 49°12' W 122°54'0 0.0
2015-Jan-15 02:24N 49°12' W 122°54'0 0.0
2015-Jan-15 00:24N 49°12' W 122°54'0 0.0
2015-Jan-14 23:26N 49°12' W 122°54'0 0.0
2015-Jan-14 21:04N 49°12' W 122°54'0 0.0
2015-Jan-14 20:26N 49°12' W 122°54'0 0.0
2015-Jan-14 19:27N 49°12' W 122°54'0 0.0
2015-Jan-14 18:25N 49°12' W 122°54'0 0.0
2015-Jan-14 17:21N 49°12' W 122°54'0 0.0
2015-Jan-14 16:31N 49°12' W 122°54'0 0.0
2015-Jan-14 15:04N 49°12' W 122°54'0 0.0
2015-Jan-14 14:25N 49°12' W 122°54'0 0.0
2015-Jan-14 13:33N 49°12' W 122°54'0 0.0
2015-Jan-14 12:21N 49°12' W 122°54'0 0.0
2015-Jan-14 11:33N 49°12' W 122°54'0 0.0
2015-Jan-14 10:25N 49°12' W 122°54'0 0.0
2015-Jan-14 09:27N 49°12' W 122°54'0 0.0
2015-Jan-14 08:33N 49°12' W 122°54'0 0.0
2015-Jan-14 07:29N 49°12' W 122°54'0 0.0
2015-Jan-14 05:24N 49°12' W 122°54'0 0.0
2015-Jan-14 04:25N 49°12' W 122°54'0 0.0
2015-Jan-14 03:24N 49°12' W 122°54'0 0.0
2015-Jan-13 23:26N 49°12' W 122°54'0 0.0
2015-Jan-13 22:17N 49°12' W 122°54'0 0.0
2015-Jan-13 21:24N 49°12' W 122°54'0 0.0
2015-Jan-13 20:31N 49°12' W 122°54'0 0.0
2015-Jan-13 19:25N 49°12' W 122°54'0 0.0
2015-Jan-13 15:21N 49°12' W 122°54'0 0.0
2015-Jan-13 14:07N 49°12' W 122°54'0 0.0
2015-Jan-13 13:10N 49°12' W 122°54'0 0.0
2015-Jan-13 12:30N 49°12' W 122°54'0 0.0
2015-Jan-13 11:32N 49°12' W 122°54'0 0.0
2015-Jan-13 10:18N 49°12' W 122°54'0 0.0
2015-Jan-13 09:32N 49°12' W 122°54'0 0.0
2015-Jan-13 08:29N 49°12' W 122°54'0 0.0
2015-Jan-13 07:26N 49°12' W 122°54'  
Track history (hours):
 
Tides and Currents Weather Stations Pressure Air Temp Water Temp Dewpoint Dewpoint Depression Visibility Wind Speed Wind Dir Waves Ship Positions

Sea Commander

Last reported at 2015-Jan-23 06:30 UTC. Time now 2015-Jan-26 12:34 UTC.
Position N 51°32' W 127°52'.

Length 44 m; draft 7 m.

Type: Tug. MMSI: 316001043.

Date/timePositionNaut miles runAvg speedWind from/ knotsBaromVisibWave heightAir tempDewpointWater temp
2015-Jan-23 06:30N 51°32' W 127°52'10 8.0
2015-Jan-23 05:16N 51°22' W 127°52'10 8.1
2015-Jan-23 04:05N 51°13' W 127°52'4 8.2
2015-Jan-23 03:32N 51°08' W 127°50'9 8.9
2015-Jan-23 02:33N 51°03' W 127°39'9 9.3
2015-Jan-23 01:33N 50°57' W 127°28'10 9.8
2015-Jan-23 00:33N 50°51' W 127°15'10 9.5
2015-Jan-22 23:32N 50°46' W 127°02'9 8.9
2015-Jan-22 22:32N 50°40' W 126°51'9 8.2
2015-Jan-22 21:29N 50°34' W 126°42'7 7.5
2015-Jan-22 20:32N 50°30' W 126°32'73 8.1
2015-Jan-22 11:33N 49°51' W 124°57'10 9.6
2015-Jan-22 10:33N 49°44' W 124°46'10 9.7
2015-Jan-22 09:33N 49°37' W 124°37'10 9.6
2015-Jan-22 08:33N 49°29' W 124°28'10 9.7
2015-Jan-22 07:33N 49°24' W 124°15'9 9.3
2015-Jan-22 06:33N 49°20' W 124°02'10 8.9
2015-Jan-22 05:29N 49°12' W 123°54'3 2.7
2015-Jan-22 04:31N 49°10' W 123°55'0 0.0
2015-Jan-22 03:32N 49°10' W 123°55'0 0.0
2015-Jan-22 02:24N 49°10' W 123°55'0 0.0
2015-Jan-22 01:28N 49°10' W 123°55'1 1.5
2015-Jan-22 00:33N 49°11' W 123°54'1110.8
2015-Jan-21 23:33N 49°11' W 123°38'912.0
2015-Jan-21 22:50N 49°08' W 123°25'112.4
2015-Jan-21 22:46N 49°07' W 123°24'312.4
2015-Jan-21 22:33N 49°07' W 123°20'1010.5
2015-Jan-21 21:33N 49°07' W 123°05'9 0.6
2015-Jan-21 06:07N 49°12' W 122°54'0 0.0
2015-Jan-21 05:30N 49°12' W 122°54'0 0.0
2015-Jan-21 04:13N 49°12' W 122°54'0 0.0
2015-Jan-21 03:27N 49°12' W 122°54'0 0.0
2015-Jan-21 02:26N 49°12' W 122°54'0 0.0
2015-Jan-21 01:25N 49°12' W 122°54'0 0.0
2015-Jan-21 00:26N 49°12' W 122°54'0 0.0
2015-Jan-20 23:18N 49°12' W 122°54'0 0.0
2015-Jan-20 22:27N 49°12' W 122°54'0 0.0
2015-Jan-20 21:34N 49°12' W 122°54'0 0.0
2015-Jan-20 20:25N 49°12' W 122°54'0 0.0
2015-Jan-20 17:22N 49°12' W 122°54'0 0.0
2015-Jan-20 16:24N 49°12' W 122°54'0 0.0
2015-Jan-20 15:14N 49°12' W 122°54'0 0.0
2015-Jan-20 14:34N 49°12' W 122°54'0 0.0
2015-Jan-20 13:32N 49°12' W 122°54'0 0.0
2015-Jan-20 12:17N 49°12' W 122°54'0 0.0
2015-Jan-20 11:25N 49°12' W 122°54'0 0.0
2015-Jan-20 08:21N 49°12' W 122°54'0 0.0
2015-Jan-20 07:32N 49°12' W 122°54'0 0.0
2015-Jan-20 05:30N 49°12' W 122°54'0 0.0
2015-Jan-20 04:26N 49°12' W 122°54'0 0.0
2015-Jan-20 03:22N 49°12' W 122°54'0 0.0
2015-Jan-20 02:32N 49°12' W 122°54'0 0.0
2015-Jan-20 01:18N 49°12' W 122°54'0 0.0
2015-Jan-20 00:27N 49°12' W 122°54'0 0.0
2015-Jan-19 23:33N 49°12' W 122°54'0 0.0
2015-Jan-19 22:32N 49°12' W 122°54'0 0.0
2015-Jan-19 21:26N 49°12' W 122°54'0 0.0
2015-Jan-19 20:32N 49°12' W 122°54'0 0.0
2015-Jan-19 18:19N 49°12' W 122°54'0 0.0
2015-Jan-19 17:29N 49°12' W 122°54'0 0.0
2015-Jan-19 15:18N 49°12' W 122°54'0 0.0
2015-Jan-19 14:31N 49°12' W 122°54'0 0.0
2015-Jan-19 13:30N 49°12' W 122°54'0 0.0
2015-Jan-19 12:24N 49°12' W 122°54'0 0.0
2015-Jan-19 11:08N 49°12' W 122°54'0 0.0
2015-Jan-19 10:18N 49°12' W 122°54'0 0.0
2015-Jan-19 08:18N 49°12' W 122°54'0 0.0
2015-Jan-19 06:24N 49°12' W 122°54'0 0.0
2015-Jan-19 05:11N 49°12' W 122°54'0 0.0
2015-Jan-19 04:34N 49°12' W 122°54'0 0.0
2015-Jan-19 03:33N 49°12' W 122°54'0 0.0
2015-Jan-19 02:33N 49°12' W 122°54'0 0.0
2015-Jan-19 01:15N 49°12' W 122°54'0 0.0
2015-Jan-19 00:28N 49°12' W 122°54'0 0.0
2015-Jan-18 23:25N 49°12' W 122°54'0 0.0
2015-Jan-18 22:33N 49°12' W 122°54'0 0.0
2015-Jan-18 21:18N 49°12' W 122°54'0 0.0
2015-Jan-18 20:33N 49°12' W 122°54'0 0.0
2015-Jan-18 19:31N 49°12' W 122°54'0 0.0
2015-Jan-18 18:14N 49°12' W 122°54'0 0.0
2015-Jan-18 17:26N 49°12' W 122°54'0 0.0
2015-Jan-18 16:22N 49°12' W 122°54'0 0.0
2015-Jan-18 15:28N 49°12' W 122°54'0 0.0
2015-Jan-18 14:17N 49°12' W 122°54'0 0.0
2015-Jan-18 12:31N 49°12' W 122°54'0 0.0
2015-Jan-18 11:32N 49°12' W 122°54'0 0.0
2015-Jan-18 10:24N 49°12' W 122°54'0 0.0
2015-Jan-18 09:30N 49°12' W 122°54'0 0.0
2015-Jan-18 08:26N 49°12' W 122°54'0 0.0
2015-Jan-18 01:21N 49°12' W 122°54'0 0.0
2015-Jan-17 21:19N 49°12' W 122°54'0 0.0
2015-Jan-17 20:15N 49°12' W 122°54'0 0.0
2015-Jan-17 19:31N 49°12' W 122°54'0 0.0
2015-Jan-17 17:27N 49°12' W 122°54'0 0.0
2015-Jan-17 16:29N 49°12' W 122°54'0 0.0
2015-Jan-17 15:26N 49°12' W 122°54'0 0.0
2015-Jan-17 14:32N 49°12' W 122°54'0 0.0
2015-Jan-17 13:13N 49°12' W 122°54'0 0.0
2015-Jan-17 12:17N 49°12' W 122°54'0 0.0
2015-Jan-17 11:31N 49°12' W 122°54'0 0.0
2015-Jan-17 10:22N 49°12' W 122°54'0 0.0
2015-Jan-17 09:23N 49°12' W 122°54'0 0.0
2015-Jan-17 08:25N 49°12' W 122°54'0 0.0
2015-Jan-17 07:25N 49°12' W 122°54'0 0.0
2015-Jan-17 06:30N 49°12' W 122°54'0 0.0
2015-Jan-17 05:27N 49°12' W 122°54'0 0.0
2015-Jan-17 04:19N 49°12' W 122°54'0 0.0
2015-Jan-17 03:27N 49°12' W 122°54'0 0.0
2015-Jan-17 02:29N 49°12' W 122°54'0 0.0
2015-Jan-17 01:33N 49°12' W 122°54'0 0.0
2015-Jan-17 00:31N 49°12' W 122°54'0 0.0
2015-Jan-16 23:16N 49°12' W 122°54'0 0.0
2015-Jan-16 22:26N 49°12' W 122°54'0 0.0
2015-Jan-16 21:31N 49°12' W 122°54'0 0.0
2015-Jan-16 20:32N 49°12' W 122°54'0 0.0
2015-Jan-16 19:31N 49°12' W 122°54'0 0.0
2015-Jan-16 18:33N 49°12' W 122°54'0 0.0
2015-Jan-16 17:27N 49°12' W 122°54'0 0.0
2015-Jan-16 16:28N 49°12' W 122°54'0 0.0
2015-Jan-16 15:31N 49°12' W 122°54'0 0.0
2015-Jan-16 14:31N 49°12' W 122°54'0 0.0
2015-Jan-16 13:33N 49°12' W 122°54'0 0.0
2015-Jan-16 12:29N 49°12' W 122°54'0 0.0
2015-Jan-16 11:32N 49°12' W 122°54'0 0.0
2015-Jan-16 10:33N 49°12' W 122°54'0 0.0
2015-Jan-16 09:33N 49°12' W 122°54'0 0.0
2015-Jan-16 08:33N 49°12' W 122°54'0 0.0
2015-Jan-16 07:33N 49°12' W 122°54'0 0.0
2015-Jan-16 06:29N 49°12' W 122°54'0 0.0
2015-Jan-16 05:33N 49°12' W 122°54'0 0.0
2015-Jan-16 04:27N 49°12' W 122°54'0 0.0
2015-Jan-16 03:20N 49°12' W 122°54'0 0.0
2015-Jan-16 02:20N 49°12' W 122°54'0 0.0
2015-Jan-16 01:29N 49°12' W 122°54'0 0.0
2015-Jan-16 00:31N 49°12' W 122°54'0 0.0
2015-Jan-15 23:16N 49°12' W 122°54'0 0.0
2015-Jan-15 22:32N 49°12' W 122°54'0 0.0
2015-Jan-15 09:07N 49°12' W 122°54'0 0.0
2015-Jan-15 04:06N 49°12' W 122°54'0 0.0
2015-Jan-15 03:30N 49°12' W 122°54'0 0.0
2015-Jan-15 02:24N 49°12' W 122°54'0 0.0
2015-Jan-15 00:24N 49°12' W 122°54'0 0.0
2015-Jan-14 23:26N 49°12' W 122°54'0 0.0
2015-Jan-14 21:04N 49°12' W 122°54'0 0.0
2015-Jan-14 20:26N 49°12' W 122°54'0 0.0
2015-Jan-14 19:27N 49°12' W 122°54'0 0.0
2015-Jan-14 18:25N 49°12' W 122°54'0 0.0
2015-Jan-14 17:21N 49°12' W 122°54'0 0.0
2015-Jan-14 16:31N 49°12' W 122°54'0 0.0
2015-Jan-14 15:04N 49°12' W 122°54'0 0.0
2015-Jan-14 14:25N 49°12' W 122°54'0 0.0
2015-Jan-14 13:33N 49°12' W 122°54'0 0.0
2015-Jan-14 12:21N 49°12' W 122°54'0 0.0
2015-Jan-14 11:33N 49°12' W 122°54'0 0.0
2015-Jan-14 10:25N 49°12' W 122°54'0 0.0
2015-Jan-14 09:27N 49°12' W 122°54'0 0.0
2015-Jan-14 08:33N 49°12' W 122°54'0 0.0
2015-Jan-14 07:29N 49°12' W 122°54'0 0.0
2015-Jan-14 05:24N 49°12' W 122°54'0 0.0
2015-Jan-14 04:25N 49°12' W 122°54'0 0.0
2015-Jan-14 03:24N 49°12' W 122°54'0 0.0
2015-Jan-13 23:26N 49°12' W 122°54'0 0.0
2015-Jan-13 22:17N 49°12' W 122°54'0 0.0
2015-Jan-13 21:24N 49°12' W 122°54'0 0.0
2015-Jan-13 20:31N 49°12' W 122°54'0 0.0
2015-Jan-13 19:25N 49°12' W 122°54'0 0.0
2015-Jan-13 15:21N 49°12' W 122°54'0 0.0
2015-Jan-13 14:07N 49°12' W 122°54'0 0.0
2015-Jan-13 13:10N 49°12' W 122°54'0 0.0
2015-Jan-13 12:30N 49°12' W 122°54'0 0.0
2015-Jan-13 11:32N 49°12' W 122°54'0 0.0
2015-Jan-13 10:18N 49°12' W 122°54'0 0.0
2015-Jan-13 09:32N 49°12' W 122°54'0 0.0
2015-Jan-13 08:29N 49°12' W 122°54'0 0.0
2015-Jan-13 07:26N 49°12' W 122°54'  

Dump ship's entire track history